Nevşehir Kapadokya Airport

LTAZ · Nevşehir, 土耳其

罗盘
风向 的 风向 120° Nevşehir Kapadokya Airport 11/29
风: 3 kt, 1 beaufort

3 kt

改变
0 ft 1.000 2.000 3.000 4.000 5.000
Cloud Cloud
FEW 4.000
METAR LTAZ 231550Z 12003KT 9999 FEW040 08/M02 Q1022

METAR Nevşehir Kapadokya Airport - LTAZ/NAV

Nevşehir Kapadokya Airport是,土耳其中的小机场。 该机场位于纬度38,77190和经度34,53450。 该机场有一条跑道: 11/29. 本场的ICAO机场代码为LTAZ。 该机场的IATA代码为NAV。 机场在Ankara FIR中。

该航空气象观测是针对Nevşehir Kapadokya Airport在2024年2月23日 18:50, 当地时间进行的。

机场观察

风向为120°,速度为3 kt。

可见度为10 km 或者更多。

有几云在4.000 ft的高度。 没有观察到天花板。

温度为8 °C,阵风为6 °C。 露点为-2 °C,相对湿度为50%。 海平面上的气压为1022 hPa (QNH)。

白天

今天,太阳从07:23升起,在18:27降落。 这适用于Nevşehir Kapadokya Airport,世界夏令时可能有所不同。 当地时间与世界标准时间之间的时差为+3 小时。 当前,没有夏令时有效。

公司介绍

在这个机场,你可以找到飞行学校。 本场上唯一已知的公司是Vizyon Aviation Flight Academy。

体会

到Vliegles.nl去找飞行课程,跳伞和其他飞行体验。 浏览页面,了解Nevşehir Kapadokya Airport附近所有可用的活动。 你也可以使用搜索功能来寻找你所在地附近的特定飞行课程、跳伞或其他飞行体验。

跑道

Id 标题 侧风 逆风 侧风 %
11/29 117°-297° 3 kt 5 %

逆风成分最大的方向会被突出显示,并用于横风计算。 这并不一定意味着这个方向在使用。

乌云

4.000 ft FEW 几云

温度 & 天气

温度 8 °C
露点 -2 °C
相对湿度 50%
风寒 6 °C
Kp-index 0 (0-9)

白天

日出
07:23 (11:56)
中午
12:55
日落
18:27

小工具

你想在你的网站上有一个关于Nevşehir Kapadokya Airport的当前航空天气(METAR)的小部件吗?

显示HTML代码
?>